createdAt,value
2023-05-05T00:00:03.285Z,1.03
2023-05-05T00:01:03.262Z,1.03
2023-05-05T00:02:03.274Z,1.00
2023-05-05T00:03:03.433Z,1.02
2023-05-05T00:04:03.305Z,1.02
2023-05-05T00:05:03.322Z,0.99
2023-05-05T00:06:03.335Z,1.01
2023-05-05T00:07:03.444Z,1.01
2023-05-05T00:08:03.330Z,1.01
2023-05-05T00:09:03.357Z,1.01
2023-05-05T00:10:03.360Z,1.01
2023-05-05T00:11:03.409Z,1.01
2023-05-05T00:12:03.404Z,1.00
2023-05-05T00:13:03.463Z,1.01
2023-05-05T00:14:03.417Z,0.99
2023-05-05T00:15:03.421Z,1.00
2023-05-05T00:16:03.538Z,1.01
2023-05-05T00:17:03.489Z,0.99
2023-05-05T00:18:03.494Z,0.99
2023-05-05T00:19:03.444Z,1.01
2023-05-05T00:20:03.507Z,1.00
2023-05-05T00:21:03.485Z,0.98
2023-05-05T00:22:03.544Z,1.00
2023-05-05T00:23:03.548Z,0.99
2023-05-05T00:24:03.563Z,0.99
2023-05-05T00:25:03.570Z,0.99
2023-05-05T00:26:03.590Z,0.98
2023-05-05T00:27:03.598Z,0.98
2023-05-05T00:28:03.647Z,0.99
2023-05-05T00:29:03.625Z,1.00
2023-05-05T00:30:03.605Z,0.97
2023-05-05T00:31:03.756Z,0.99
2023-05-05T00:32:03.647Z,0.97
2023-05-05T00:33:03.766Z,0.99
2023-05-05T00:34:03.696Z,0.98
2023-05-05T00:35:03.708Z,0.98
2023-05-05T00:36:03.716Z,0.96
2023-05-05T00:37:03.757Z,0.97
2023-05-05T00:38:03.735Z,0.98
2023-05-05T00:39:03.755Z,0.95
2023-05-05T00:40:03.807Z,0.96
2023-05-05T00:41:03.781Z,0.97
2023-05-05T00:42:03.953Z,0.96
2023-05-05T00:43:03.780Z,0.96
2023-05-05T00:44:03.860Z,0.97
2023-05-05T00:45:03.838Z,0.96
2023-05-05T00:46:03.898Z,0.96
2023-05-05T00:47:03.843Z,0.97
2023-05-05T00:48:03.932Z,0.96
2023-05-05T00:49:03.950Z,0.95
2023-05-05T00:50:03.902Z,0.97
2023-05-05T00:51:03.905Z,0.92
2023-05-05T00:52:03.920Z,0.95
2023-05-05T00:53:03.977Z,0.95
2023-05-05T00:54:03.924Z,0.95
2023-05-05T00:55:03.944Z,0.93
2023-05-05T00:56:03.969Z,0.94
2023-05-05T00:57:04.000Z,0.96
2023-05-05T00:58:04.031Z,0.95
2023-05-05T00:59:04.004Z,0.95
2023-05-05T01:00:04.086Z,0.94
2023-05-05T01:01:04.041Z,0.92
2023-05-05T01:02:04.115Z,0.92
2023-05-05T01:03:04.564Z,0.94
2023-05-05T01:04:04.156Z,0.95
2023-05-05T01:05:04.224Z,0.94
2023-05-05T01:06:04.111Z,0.95
2023-05-05T01:07:04.121Z,0.94
2023-05-05T01:08:04.129Z,0.94
2023-05-05T01:09:04.183Z,0.94
2023-05-05T01:10:15.674Z,0.91
2023-05-05T01:11:05.163Z,0.91
2023-05-05T01:12:04.140Z,0.91
2023-05-05T01:13:04.226Z,0.92
2023-05-05T01:14:04.131Z,0.92
2023-05-05T01:15:04.146Z,0.93
2023-05-05T01:16:04.195Z,0.92
2023-05-05T01:17:04.142Z,0.92
2023-05-05T01:18:04.524Z,0.92
2023-05-05T01:19:04.127Z,0.91
2023-05-05T01:20:04.141Z,0.93
2023-05-05T01:21:04.136Z,0.90
2023-05-05T01:22:04.130Z,0.91
2023-05-05T01:23:04.095Z,0.91
2023-05-05T01:24:04.072Z,0.92
2023-05-05T01:25:04.076Z,0.92
2023-05-05T01:26:04.116Z,0.92
2023-05-05T01:27:04.033Z,0.90
2023-05-05T01:28:04.049Z,0.91
2023-05-05T01:29:04.057Z,0.92
2023-05-05T01:30:04.067Z,0.91
2023-05-05T01:31:04.002Z,0.90
2023-05-05T01:32:04.112Z,0.90
2023-05-05T01:33:04.006Z,0.90
2023-05-05T01:34:04.022Z,0.90
2023-05-05T01:35:04.022Z,0.90
2023-05-05T01:36:04.014Z,0.89
2023-05-05T01:37:04.009Z,0.90
2023-05-05T01:38:04.058Z,0.90
2023-05-05T01:39:04.069Z,0.91
2023-05-05T01:40:04.213Z,0.89
2023-05-05T01:41:04.079Z,0.91
2023-05-05T01:42:04.107Z,0.90
2023-05-05T01:43:04.115Z,0.88
2023-05-05T01:44:04.116Z,0.91
2023-05-05T01:45:04.133Z,0.89
2023-05-05T01:46:04.234Z,0.90
2023-05-05T01:47:04.186Z,0.89
2023-05-05T01:48:04.509Z,0.89
2023-05-05T01:49:04.196Z,0.87
2023-05-05T01:50:04.233Z,0.89
2023-05-05T01:51:04.244Z,0.89
2023-05-05T01:52:04.257Z,0.88
2023-05-05T01:53:04.289Z,0.89
2023-05-05T01:54:04.303Z,0.87
2023-05-05T01:55:04.307Z,0.88
2023-05-05T01:56:04.332Z,0.88
2023-05-05T01:57:04.345Z,0.87
2023-05-05T01:58:04.340Z,0.89
2023-05-05T01:59:04.360Z,0.89
2023-05-05T02:00:04.413Z,0.87
2023-05-05T02:01:04.445Z,0.89
2023-05-05T02:02:04.513Z,0.88
2023-05-05T02:03:04.574Z,0.88
2023-05-05T02:04:04.510Z,0.87
2023-05-05T02:05:04.513Z,0.87
2023-05-05T02:06:04.590Z,0.87
2023-05-05T02:07:04.563Z,0.85
2023-05-05T02:08:04.988Z,0.88
2023-05-05T02:09:04.596Z,0.87
2023-05-05T02:10:04.684Z,0.87
2023-05-05T02:11:04.642Z,0.87
2023-05-05T02:12:04.656Z,0.86
2023-05-05T02:13:04.865Z,0.87
2023-05-05T02:14:04.770Z,0.85
2023-05-05T02:15:04.719Z,0.87
2023-05-05T02:16:04.783Z,0.86
2023-05-05T02:17:04.755Z,0.85
2023-05-05T02:18:04.794Z,0.87
2023-05-05T02:19:04.848Z,0.86
2023-05-05T02:20:04.897Z,0.86
2023-05-05T02:21:04.820Z,0.87
2023-05-05T02:22:04.855Z,0.85
2023-05-05T02:23:04.875Z,0.85
2023-05-05T02:24:04.908Z,0.86
2023-05-05T02:25:04.955Z,0.85
2023-05-05T02:26:04.960Z,0.87
2023-05-05T02:27:04.939Z,0.85
2023-05-05T02:28:05.010Z,0.86
2023-05-05T02:29:05.006Z,0.85
2023-05-05T02:30:05.098Z,0.85
2023-05-05T02:31:05.053Z,0.84
2023-05-05T02:32:05.078Z,0.86
2023-05-05T02:33:05.143Z,0.86
2023-05-05T02:34:05.072Z,0.87
2023-05-05T02:35:05.122Z,0.86
2023-05-05T02:36:05.138Z,0.86
2023-05-05T02:37:05.144Z,0.86
2023-05-05T02:38:05.176Z,0.84
2023-05-05T02:39:05.169Z,0.85
2023-05-05T02:40:05.314Z,0.84
2023-05-05T02:41:05.249Z,0.84
2023-05-05T02:42:05.278Z,0.85
2023-05-05T02:43:05.296Z,0.85
2023-05-05T02:44:05.297Z,0.84
2023-05-05T02:45:05.323Z,0.84
2023-05-05T02:46:05.435Z,0.85
2023-05-05T02:47:05.338Z,0.85
2023-05-05T02:48:05.555Z,0.84
2023-05-05T02:49:05.429Z,0.84
2023-05-05T02:50:05.536Z,0.83
2023-05-05T02:51:05.459Z,0.84
2023-05-05T02:52:05.468Z,0.83
2023-05-05T02:53:05.518Z,0.83
2023-05-05T02:54:05.555Z,0.84
2023-05-05T02:55:05.569Z,0.84
2023-05-05T02:56:05.585Z,0.82
2023-05-05T02:57:05.577Z,0.82
2023-05-05T02:58:05.575Z,0.83
2023-05-05T02:59:05.659Z,0.83
2023-05-05T03:00:05.831Z,0.82
2023-05-05T03:01:05.675Z,0.83
2023-05-05T03:02:05.665Z,0.84
2023-05-05T03:03:05.771Z,0.83
2023-05-05T03:04:05.718Z,0.82
2023-05-05T03:05:05.796Z,0.82
2023-05-05T03:06:05.814Z,0.83
2023-05-05T03:07:05.787Z,0.82
2023-05-05T03:08:05.868Z,0.83
2023-05-05T03:09:05.867Z,0.83
2023-05-05T03:10:06.224Z,0.82
2023-05-05T03:11:05.942Z,0.80
2023-05-05T03:12:05.923Z,0.81
2023-05-05T03:13:06.023Z,0.82
2023-05-05T03:14:05.975Z,0.81
2023-05-05T03:15:05.998Z,0.81
2023-05-05T03:16:06.016Z,0.81
2023-05-05T03:17:06.041Z,0.80
2023-05-05T03:18:06.553Z,0.82
2023-05-05T03:19:06.111Z,0.82
2023-05-05T03:20:06.302Z,0.82
2023-05-05T03:21:06.178Z,0.82
2023-05-05T03:22:06.212Z,0.82
2023-05-05T03:23:06.216Z,0.82
2023-05-05T03:24:06.272Z,0.82
2023-05-05T03:25:06.300Z,0.79
2023-05-05T03:26:06.352Z,0.82
2023-05-05T03:27:06.319Z,0.81
2023-05-05T03:28:06.363Z,0.81
2023-05-05T03:29:06.361Z,0.82
2023-05-05T03:30:06.582Z,0.81
2023-05-05T03:31:06.446Z,0.81
2023-05-05T03:32:06.541Z,0.81
2023-05-05T03:33:06.583Z,0.81
2023-05-05T03:34:06.536Z,0.81
2023-05-05T03:35:06.545Z,0.81
2023-05-05T03:36:06.618Z,0.81
2023-05-05T03:37:06.590Z,0.81
2023-05-05T03:38:06.665Z,0.82
2023-05-05T03:39:06.698Z,0.80
2023-05-05T03:40:06.922Z,0.80
2023-05-05T03:41:06.686Z,0.82
2023-05-05T03:42:06.788Z,0.81
2023-05-05T03:43:06.754Z,0.79
2023-05-05T03:44:06.779Z,0.79
2023-05-05T03:45:06.825Z,0.78
2023-05-05T03:46:06.938Z,0.79
2023-05-05T03:47:06.862Z,0.80
2023-05-05T03:48:06.991Z,0.79
2023-05-05T03:49:06.951Z,0.79
2023-05-05T03:50:07.168Z,0.79
2023-05-05T03:51:06.982Z,0.78
2023-05-05T03:52:07.035Z,0.79
2023-05-05T03:53:07.564Z,0.78
2023-05-05T03:54:07.090Z,0.79
2023-05-05T03:55:07.147Z,0.79
2023-05-05T03:56:07.245Z,0.80
2023-05-05T03:57:07.159Z,0.79
2023-05-05T03:58:07.229Z,0.80
2023-05-05T03:59:07.219Z,0.79
2023-05-05T04:00:07.545Z,0.77
2023-05-05T04:01:07.299Z,0.78
2023-05-05T04:02:07.332Z,0.79
2023-05-05T04:03:07.507Z,0.79
2023-05-05T04:04:07.377Z,0.80
2023-05-05T04:05:07.417Z,0.79
2023-05-05T04:06:08.068Z,0.79
2023-05-05T04:07:07.451Z,0.77
2023-05-05T04:08:07.492Z,0.78
2023-05-05T04:09:07.530Z,0.79
2023-05-05T04:10:07.824Z,0.77
2023-05-05T04:11:07.584Z,0.79
2023-05-05T04:12:07.636Z,0.78
2023-05-05T04:13:07.674Z,0.77
2023-05-05T04:14:07.663Z,0.76
2023-05-05T04:15:07.716Z,0.77
2023-05-05T04:16:07.753Z,0.77
2023-05-05T04:17:07.718Z,0.77
2023-05-05T04:18:07.847Z,0.76
2023-05-05T04:19:08.408Z,0.76
2023-05-05T04:20:08.119Z,0.76
2023-05-05T04:21:07.887Z,0.77
2023-05-05T04:22:07.888Z,0.78
2023-05-05T04:23:07.917Z,0.77
2023-05-05T04:24:07.946Z,0.77
2023-05-05T04:25:07.961Z,0.78
2023-05-05T04:26:07.954Z,0.78
2023-05-05T04:27:07.979Z,0.77
2023-05-05T04:28:08.005Z,0.77
2023-05-05T04:29:08.043Z,0.77
2023-05-05T04:30:08.268Z,0.78
2023-05-05T04:31:08.132Z,0.77
2023-05-05T04:32:08.119Z,0.78
2023-05-05T04:33:08.175Z,0.76
2023-05-05T04:34:08.226Z,0.76
2023-05-05T04:35:08.212Z,0.75
2023-05-05T04:36:08.231Z,0.75
2023-05-05T04:37:08.272Z,0.76
2023-05-05T04:38:08.304Z,0.77
2023-05-05T04:39:08.329Z,0.76
2023-05-05T04:40:08.591Z,0.77
2023-05-05T04:41:08.457Z,0.77
2023-05-05T04:42:08.383Z,0.77
2023-05-05T04:43:08.443Z,0.75
2023-05-05T04:44:08.450Z,0.75
2023-05-05T04:45:08.499Z,0.76
2023-05-05T04:46:08.587Z,0.75
2023-05-05T04:47:08.574Z,0.75
2023-05-05T04:48:08.606Z,0.75
2023-05-05T04:49:08.601Z,0.75
2023-05-05T04:50:08.905Z,0.75
2023-05-05T04:51:08.714Z,0.74
2023-05-05T04:52:08.740Z,0.75
2023-05-05T04:53:08.752Z,0.75
2023-05-05T04:54:08.771Z,0.75
2023-05-05T04:55:08.798Z,0.76
2023-05-05T04:56:08.854Z,0.75
2023-05-05T04:57:08.888Z,0.76
2023-05-05T04:58:09.034Z,0.75
2023-05-05T04:59:08.954Z,0.74
2023-05-05T05:00:09.222Z,0.74
2023-05-05T05:01:09.003Z,0.74
2023-05-05T05:02:09.144Z,0.74
2023-05-05T05:03:09.159Z,0.75
2023-05-05T05:04:09.098Z,0.74
2023-05-05T05:05:09.153Z,0.74
2023-05-05T05:06:09.158Z,0.74
2023-05-05T05:07:09.170Z,0.74
2023-05-05T05:08:09.203Z,0.72
2023-05-05T05:09:09.232Z,0.74
2023-05-05T05:10:09.533Z,0.73
2023-05-05T05:11:09.292Z,0.74
2023-05-05T05:12:09.358Z,0.72
2023-05-05T05:13:11.906Z,0.72
2023-05-05T05:14:09.356Z,0.74
2023-05-05T05:15:09.368Z,0.73
2023-05-05T05:16:09.430Z,0.72
2023-05-05T05:17:09.340Z,0.72
2023-05-05T05:18:09.364Z,0.73
2023-05-05T05:19:09.353Z,0.72
2023-05-05T05:20:09.827Z,0.71
2023-05-05T05:21:09.312Z,0.73
2023-05-05T05:22:09.362Z,0.73
2023-05-05T05:23:09.332Z,0.72
2023-05-05T05:24:09.310Z,0.71
2023-05-05T05:25:09.263Z,0.72
2023-05-05T05:26:09.418Z,0.72
2023-05-05T05:27:10.109Z,0.72
2023-05-05T05:28:10.532Z,0.72
2023-05-05T05:29:09.300Z,0.73
2023-05-05T05:30:09.445Z,0.71
2023-05-05T05:31:09.266Z,0.72
2023-05-05T05:32:09.545Z,0.72
2023-05-05T05:33:09.321Z,0.71
2023-05-05T05:34:12.066Z,0.71
2023-05-05T05:35:09.197Z,0.74
2023-05-05T05:36:09.213Z,0.72
2023-05-05T05:37:09.214Z,0.72
2023-05-05T05:38:09.575Z,0.72
2023-05-05T05:39:09.173Z,0.71
2023-05-05T05:40:09.328Z,0.71
2023-05-05T05:41:09.190Z,0.72
2023-05-05T05:42:09.152Z,0.71
2023-05-05T05:43:09.156Z,0.70
2023-05-05T05:44:09.586Z,0.72
2023-05-05T05:45:09.162Z,0.72
2023-05-05T05:46:09.443Z,0.71
2023-05-05T05:47:09.120Z,0.72
2023-05-05T05:48:09.192Z,0.71
2023-05-05T05:49:10.172Z,0.71
2023-05-05T05:50:09.258Z,0.71
2023-05-05T05:51:09.100Z,0.72
2023-05-05T05:52:09.116Z,0.73
2023-05-05T05:53:09.108Z,0.74
2023-05-05T05:54:09.101Z,0.74
2023-05-05T05:55:09.118Z,0.73
2023-05-05T05:56:09.141Z,0.75
2023-05-05T05:57:09.069Z,0.75
2023-05-05T05:58:09.050Z,0.73
2023-05-05T05:59:09.055Z,0.76
2023-05-05T06:00:09.295Z,0.75
2023-05-05T06:01:09.058Z,0.73
2023-05-05T06:02:09.068Z,0.76
2023-05-05T06:03:09.110Z,0.77
2023-05-05T06:04:09.205Z,0.78
2023-05-05T06:05:09.043Z,0.79
2023-05-05T06:06:09.005Z,0.78
2023-05-05T06:07:09.002Z,0.74
2023-05-05T06:08:09.007Z,0.76
2023-05-05T06:09:09.129Z,0.82
2023-05-05T06:10:25.718Z,0.80
2023-05-05T06:11:10.014Z,0.80
2023-05-05T06:12:08.958Z,0.80
2023-05-05T06:13:09.017Z,0.82
2023-05-05T06:14:09.112Z,0.82
2023-05-05T06:15:08.966Z,0.80
2023-05-05T06:16:08.998Z,0.79
2023-05-05T06:17:09.000Z,0.81
2023-05-05T06:18:08.948Z,0.77
2023-05-05T06:19:09.127Z,0.77
2023-05-05T06:20:09.148Z,0.77
2023-05-05T06:21:08.912Z,0.79
2023-05-05T06:22:08.892Z,0.83
2023-05-05T06:23:08.913Z,0.81
2023-05-05T06:24:09.091Z,0.80
2023-05-05T06:25:08.875Z,0.81
2023-05-05T06:26:08.872Z,0.81
2023-05-05T06:27:08.920Z,0.80
2023-05-05T06:28:08.993Z,0.81
2023-05-05T06:29:10.522Z,0.82
2023-05-05T06:30:09.265Z,0.85
2023-05-05T06:31:09.139Z,0.85
2023-05-05T06:32:09.014Z,0.87
2023-05-05T06:33:09.159Z,0.89
2023-05-05T06:34:09.128Z,0.88
2023-05-05T06:35:08.981Z,0.88
2023-05-05T06:36:09.028Z,0.89
2023-05-05T06:37:09.005Z,0.91
2023-05-05T06:38:08.971Z,0.92
2023-05-05T06:39:09.082Z,0.92
2023-05-05T06:40:09.131Z,0.91
2023-05-05T06:41:08.997Z,0.90
2023-05-05T06:42:08.956Z,0.92
2023-05-05T06:43:08.960Z,0.93
2023-05-05T06:44:08.953Z,0.91
2023-05-05T06:45:08.924Z,0.96
2023-05-05T06:46:08.933Z,0.97
2023-05-05T06:47:08.977Z,0.98
2023-05-05T06:48:08.937Z,0.98
2023-05-05T06:49:08.932Z,0.97
2023-05-05T06:50:09.180Z,0.98
2023-05-05T06:51:08.905Z,0.98
2023-05-05T06:52:08.901Z,1.00
2023-05-05T06:53:08.867Z,1.02
2023-05-05T06:54:08.926Z,1.03
2023-05-05T06:55:08.869Z,1.04
2023-05-05T06:56:08.934Z,1.05
2023-05-05T06:57:08.855Z,1.07
2023-05-05T06:58:09.596Z,1.06
2023-05-05T06:59:09.600Z,1.07
2023-05-05T07:00:08.962Z,1.07
2023-05-05T07:01:08.867Z,1.09
2023-05-05T07:02:08.815Z,1.08
2023-05-05T07:03:08.837Z,1.09
2023-05-05T07:04:09.157Z,1.11
2023-05-05T07:05:08.800Z,1.11
2023-05-05T07:06:08.853Z,1.10
2023-05-05T07:07:08.792Z,1.13
2023-05-05T07:08:08.772Z,1.13
2023-05-05T07:09:08.822Z,1.13
2023-05-05T07:10:09.033Z,1.14
2023-05-05T07:11:08.764Z,1.15
2023-05-05T07:12:08.916Z,1.15
2023-05-05T07:13:08.829Z,1.17
2023-05-05T07:14:08.760Z,1.18
2023-05-05T07:15:23.482Z,1.16
2023-05-05T07:16:09.765Z,1.16
2023-05-05T07:17:08.759Z,1.16
2023-05-05T07:18:08.750Z,1.18
2023-05-05T07:19:08.730Z,1.21
2023-05-05T07:20:09.130Z,1.28
2023-05-05T07:21:08.718Z,1.31
2023-05-05T07:22:08.697Z,1.28
2023-05-05T07:23:08.682Z,1.29
2023-05-05T07:24:08.689Z,1.27
2023-05-05T07:25:08.694Z,1.28
2023-05-05T07:26:08.656Z,1.27
2023-05-05T07:27:08.732Z,1.29
2023-05-05T07:28:08.778Z,1.31
2023-05-05T07:29:08.670Z,1.31
2023-05-05T07:30:13.068Z,1.32
2023-05-05T07:31:09.646Z,1.32
2023-05-05T07:32:08.676Z,1.32
2023-05-05T07:33:08.657Z,1.32
2023-05-05T07:34:08.607Z,1.32
2023-05-05T07:35:08.817Z,1.36
2023-05-05T07:36:08.591Z,1.34
2023-05-05T07:37:08.581Z,1.37
2023-05-05T07:38:10.174Z,1.36
2023-05-05T07:39:17.708Z,1.37
2023-05-05T07:40:08.896Z,1.37
2023-05-05T07:41:08.572Z,1.38
2023-05-05T07:42:08.572Z,1.39
2023-05-05T07:43:08.579Z,1.42
2023-05-05T07:44:08.602Z,1.45
2023-05-05T07:45:08.610Z,1.49
2023-05-05T07:46:08.565Z,1.51
2023-05-05T07:47:08.490Z,1.32
2023-05-05T07:48:08.558Z,1.37
2023-05-05T07:49:08.526Z,1.30
2023-05-05T07:50:08.808Z,1.28
2023-05-05T07:51:08.490Z,1.11
2023-05-05T07:52:08.498Z,1.04
2023-05-05T07:53:14.299Z,0.96
2023-05-05T07:54:09.495Z,0.96
2023-05-05T07:55:08.541Z,0.98
2023-05-05T07:56:08.472Z,1.00
2023-05-05T07:57:08.460Z,1.06
2023-05-05T07:58:08.509Z,0.98
2023-05-05T07:59:08.650Z,0.84
2023-05-05T08:00:08.781Z,0.86
2023-05-05T08:01:08.449Z,0.80
2023-05-05T08:02:08.489Z,0.77
2023-05-05T08:03:11.312Z,0.77
2023-05-05T08:04:08.712Z,0.80
2023-05-05T08:05:08.774Z,0.84
2023-05-05T08:06:08.394Z,0.77
2023-05-05T08:07:08.417Z,0.78
2023-05-05T08:08:08.351Z,0.87
2023-05-05T08:09:08.367Z,0.79
2023-05-05T08:10:08.373Z,0.74
2023-05-05T08:11:08.356Z,0.77
2023-05-05T08:12:08.354Z,0.85
2023-05-05T08:13:08.414Z,0.91
2023-05-05T08:14:08.335Z,0.88
2023-05-05T08:15:08.669Z,0.87
2023-05-05T08:16:08.516Z,0.81
2023-05-05T08:17:08.317Z,0.73
2023-05-05T08:18:08.380Z,0.74
2023-05-05T08:19:17.848Z,0.68
2023-05-05T08:20:09.314Z,0.68
2023-05-05T08:21:08.309Z,0.68
2023-05-05T08:22:08.333Z,0.66
2023-05-05T08:23:08.305Z,0.72
2023-05-05T08:24:08.648Z,0.81
2023-05-05T08:25:08.441Z,0.90
2023-05-05T08:26:08.261Z,0.94
2023-05-05T08:27:08.262Z,0.81
2023-05-05T08:28:08.269Z,0.87
2023-05-05T08:29:08.649Z,0.92
2023-05-05T08:30:08.310Z,0.85
2023-05-05T08:31:08.243Z,0.94
2023-05-05T08:32:08.310Z,0.99
2023-05-05T08:33:08.297Z,1.14
2023-05-05T08:34:08.687Z,1.23
2023-05-05T08:35:08.378Z,1.39
2023-05-05T08:36:08.214Z,1.55
2023-05-05T08:37:08.176Z,1.57
2023-05-05T08:38:08.189Z,1.36
2023-05-05T08:39:08.176Z,1.42
2023-05-05T08:40:08.183Z,1.49
2023-05-05T08:41:08.171Z,1.80
2023-05-05T08:42:08.165Z,1.97
2023-05-05T08:43:08.157Z,2.20
2023-05-05T08:44:08.210Z,2.29
2023-05-05T08:45:08.526Z,2.44
2023-05-05T08:46:08.154Z,2.70
2023-05-05T08:47:08.173Z,2.87
2023-05-05T08:48:08.325Z,3.08
2023-05-05T08:49:08.241Z,3.23
2023-05-05T08:50:08.237Z,3.61
2023-05-05T08:51:08.244Z,3.97
2023-05-05T08:52:08.283Z,4.45
2023-05-05T08:53:08.282Z,4.71
2023-05-05T08:54:08.706Z,4.75
2023-05-05T08:55:08.492Z,4.75
2023-05-05T08:56:08.349Z,4.56
2023-05-05T08:57:08.364Z,4.53
2023-05-05T08:58:08.356Z,4.65
2023-05-05T08:59:08.406Z,4.87
2023-05-05T09:00:08.400Z,4.50
2023-05-05T09:01:08.478Z,4.00
2023-05-05T09:02:08.502Z,3.78
2023-05-05T09:03:08.637Z,3.80
2023-05-05T09:04:08.786Z,3.91
2023-05-05T09:05:08.761Z,4.33
2023-05-05T09:06:08.649Z,4.42
2023-05-05T09:07:08.684Z,4.43
2023-05-05T09:08:08.779Z,5.04
2023-05-05T09:09:08.846Z,5.14
2023-05-05T09:10:08.865Z,5.29
2023-05-05T09:11:08.965Z,5.66
2023-05-05T09:12:08.972Z,5.50
2023-05-05T09:13:09.043Z,4.86
2023-05-05T09:14:09.147Z,4.85
2023-05-05T09:15:09.466Z,5.71
2023-05-05T09:16:09.215Z,8.41
2023-05-05T09:17:09.441Z,8.12
2023-05-05T09:18:09.368Z,7.77
2023-05-05T09:19:09.689Z,7.89
2023-05-05T09:20:09.444Z,7.58
2023-05-05T09:21:09.495Z,7.98
2023-05-05T09:22:09.547Z,8.27
2023-05-05T09:23:09.627Z,9.27
2023-05-05T09:24:09.852Z,10.93
2023-05-05T09:25:09.906Z,12.15
2023-05-05T09:26:09.739Z,11.37
2023-05-05T09:27:09.780Z,10.55
2023-05-05T09:28:09.815Z,9.89
2023-05-05T09:29:09.854Z,10.65
2023-05-05T09:30:09.942Z,11.34
2023-05-05T09:31:09.973Z,11.25
2023-05-05T09:32:09.994Z,10.82
2023-05-05T09:33:10.104Z,10.07
2023-05-05T09:34:10.157Z,10.37
2023-05-05T09:35:10.251Z,12.04
2023-05-05T09:36:10.220Z,13.85
2023-05-05T09:37:10.276Z,15.89
2023-05-05T09:38:10.309Z,15.69
2023-05-05T09:39:10.715Z,17.60
2023-05-05T09:40:10.410Z,17.94
2023-05-05T09:41:10.430Z,17.79
2023-05-05T09:42:10.495Z,18.39
2023-05-05T09:43:10.529Z,18.59
2023-05-05T09:44:10.577Z,18.74
2023-05-05T09:45:10.589Z,18.35
2023-05-05T09:46:10.734Z,16.94
2023-05-05T09:47:26.179Z,15.36
2023-05-05T09:48:11.691Z,15.38
2023-05-05T09:49:10.717Z,14.40
2023-05-05T09:50:10.726Z,12.09
2023-05-05T09:51:10.660Z,11.46
2023-05-05T09:52:10.852Z,12.20
2023-05-05T09:53:10.672Z,12.29
2023-05-05T09:54:10.643Z,12.10
2023-05-05T09:55:10.736Z,11.98
2023-05-05T09:56:10.611Z,11.90
2023-05-05T09:57:10.670Z,11.56
2023-05-05T09:58:10.664Z,11.63
2023-05-05T09:59:10.641Z,11.64
2023-05-05T10:00:10.982Z,11.20
2023-05-05T10:01:10.771Z,10.90
2023-05-05T10:02:10.793Z,10.62
2023-05-05T10:03:11.723Z,10.20
2023-05-05T10:04:10.877Z,9.76
2023-05-05T10:05:11.218Z,9.56
2023-05-05T10:06:10.996Z,8.66
2023-05-05T10:07:11.065Z,8.00
2023-05-05T10:08:11.270Z,7.10
2023-05-05T10:09:11.177Z,7.11
2023-05-05T10:10:11.916Z,7.09
2023-05-05T10:11:11.295Z,7.05
2023-05-05T10:12:11.346Z,6.97
2023-05-05T10:13:11.510Z,6.69
2023-05-05T10:14:11.447Z,6.60
2023-05-05T10:15:11.707Z,6.62
2023-05-05T10:16:11.641Z,6.52
2023-05-05T10:17:11.675Z,6.29
2023-05-05T10:18:11.759Z,5.98
2023-05-05T10:19:11.779Z,5.75
2023-05-05T10:20:11.817Z,5.55
2023-05-05T10:21:11.885Z,5.25
2023-05-05T10:22:11.970Z,5.11
2023-05-05T10:23:11.994Z,4.97
2023-05-05T10:24:12.192Z,4.74
2023-05-05T10:25:12.231Z,4.75
2023-05-05T10:26:12.171Z,4.71
2023-05-05T10:27:12.724Z,4.40
2023-05-05T10:28:12.301Z,4.18
2023-05-05T10:29:12.372Z,4.02
2023-05-05T10:30:12.726Z,3.90
2023-05-05T10:31:24.164Z,3.90
2023-05-05T10:32:37.001Z,3.90
2023-05-05T10:33:30.230Z,3.90
2023-05-05T10:34:13.623Z,3.91
2023-05-05T10:35:12.743Z,3.90
2023-05-05T10:36:12.421Z,3.63
2023-05-05T10:37:12.436Z,3.32
2023-05-05T10:38:12.402Z,3.25
2023-05-05T10:39:12.417Z,3.10
2023-05-05T10:40:12.805Z,2.91
2023-05-05T10:41:12.400Z,2.88
2023-05-05T10:42:12.415Z,2.84
2023-05-05T10:43:12.382Z,2.69
2023-05-05T10:44:12.385Z,2.70
2023-05-05T10:45:12.799Z,2.62
2023-05-05T10:46:12.413Z,2.44
2023-05-05T10:47:12.372Z,2.43
2023-05-05T10:48:12.498Z,2.40
2023-05-05T10:49:13.431Z,2.35
2023-05-05T10:50:12.777Z,2.40
2023-05-05T10:51:13.179Z,2.44
2023-05-05T10:52:12.327Z,2.39
2023-05-05T10:53:12.342Z,2.32
2023-05-05T10:54:12.479Z,2.33
2023-05-05T10:55:12.756Z,2.34
2023-05-05T10:56:12.472Z,2.34
2023-05-05T10:57:12.456Z,2.35
2023-05-05T10:58:12.524Z,2.40
2023-05-05T10:59:12.587Z,2.38
2023-05-05T11:00:14.626Z,2.41
2023-05-05T11:01:12.705Z,2.37
2023-05-05T11:02:12.773Z,2.34
2023-05-05T11:03:12.874Z,2.34
2023-05-05T11:04:12.840Z,2.38
2023-05-05T11:05:13.250Z,2.37
2023-05-05T11:06:12.991Z,2.38
2023-05-05T11:07:14.985Z,2.35
2023-05-05T11:08:13.116Z,2.42
2023-05-05T11:09:13.123Z,2.34
2023-05-05T11:10:13.239Z,2.36
2023-05-05T11:11:13.278Z,2.31
2023-05-05T11:12:13.411Z,2.23
2023-05-05T11:13:13.469Z,2.20
2023-05-05T11:14:13.460Z,2.18
2023-05-05T11:15:13.751Z,2.14
2023-05-05T11:16:13.602Z,2.16
2023-05-05T11:17:13.633Z,2.00
2023-05-05T11:18:13.703Z,1.98
2023-05-05T11:19:13.782Z,1.99
2023-05-05T11:20:14.327Z,2.07
2023-05-05T11:21:13.911Z,2.05
2023-05-05T11:22:13.956Z,2.05
2023-05-05T11:23:16.528Z,2.11
2023-05-05T11:24:14.026Z,2.13
2023-05-05T11:25:14.249Z,2.17
2023-05-05T11:26:13.986Z,2.14
2023-05-05T11:27:14.978Z,2.14
2023-05-05T11:28:14.197Z,2.15
2023-05-05T11:29:13.981Z,2.15
2023-05-05T11:30:14.024Z,2.11
2023-05-05T11:31:13.979Z,2.10
2023-05-05T11:32:13.976Z,2.09
2023-05-05T11:33:13.959Z,2.05
2023-05-05T11:34:13.930Z,2.01
2023-05-05T11:35:14.268Z,2.02
2023-05-05T11:36:13.917Z,1.95
2023-05-05T11:37:13.962Z,1.94
2023-05-05T11:38:13.997Z,1.94
2023-05-05T11:39:14.058Z,1.93
2023-05-05T11:40:14.163Z,1.96
2023-05-05T11:41:14.205Z,1.93
2023-05-05T11:42:14.303Z,1.85
2023-05-05T11:43:14.308Z,1.85
2023-05-05T11:44:14.406Z,1.87
2023-05-05T11:45:14.783Z,1.83
2023-05-05T11:46:14.579Z,1.82
2023-05-05T11:47:14.513Z,1.83
2023-05-05T11:48:14.637Z,1.79
2023-05-05T11:49:14.625Z,1.76
2023-05-05T11:50:14.657Z,1.81
2023-05-05T11:51:14.694Z,1.75
2023-05-05T11:52:14.786Z,1.78
2023-05-05T11:53:14.773Z,1.77
2023-05-05T11:54:14.857Z,1.79
2023-05-05T11:55:15.276Z,1.79
2023-05-05T11:56:14.952Z,1.79
2023-05-05T11:57:15.018Z,1.77
2023-05-05T11:58:15.094Z,1.76
2023-05-05T11:59:15.089Z,1.77
2023-05-05T12:00:15.366Z,1.74
2023-05-05T12:01:15.223Z,1.74
2023-05-05T12:02:15.279Z,1.75
2023-05-05T12:03:15.476Z,1.79
2023-05-05T12:04:15.461Z,1.82
2023-05-05T12:05:15.791Z,1.78
2023-05-05T12:06:15.428Z,1.76
2023-05-05T12:07:15.476Z,1.74
2023-05-05T12:08:15.541Z,1.77
2023-05-05T12:09:15.584Z,1.77
2023-05-05T12:10:15.778Z,1.78
2023-05-05T12:11:15.686Z,1.77
2023-05-05T12:12:15.698Z,1.79
2023-05-05T12:13:15.764Z,1.80
2023-05-05T12:14:15.815Z,1.76
2023-05-05T12:15:16.271Z,1.72
2023-05-05T12:16:16.002Z,1.72
2023-05-05T12:17:15.930Z,1.70
2023-05-05T12:18:15.966Z,1.68
2023-05-05T12:19:15.987Z,1.68
2023-05-05T12:20:16.301Z,1.69
2023-05-05T12:21:16.123Z,1.67
2023-05-05T12:22:16.179Z,1.67
2023-05-05T12:23:16.177Z,1.66
2023-05-05T12:24:16.255Z,1.66
2023-05-05T12:25:16.291Z,1.68
2023-05-05T12:26:16.346Z,1.69
2023-05-05T12:27:16.410Z,1.64
2023-05-05T12:28:16.421Z,1.62
2023-05-05T12:29:16.478Z,1.64
2023-05-05T12:30:16.612Z,1.64
2023-05-05T12:31:16.669Z,1.64
2023-05-05T12:32:16.636Z,1.63
2023-05-05T12:33:16.601Z,1.62
2023-05-05T12:34:16.697Z,1.61
2023-05-05T12:35:16.806Z,1.62
2023-05-05T12:36:16.791Z,1.60
2023-05-05T12:37:16.782Z,1.61
2023-05-05T12:38:16.829Z,1.60
2023-05-05T12:39:16.900Z,1.60
2023-05-05T12:40:17.325Z,1.55
2023-05-05T12:41:16.953Z,1.57
2023-05-05T12:42:17.031Z,1.58
2023-05-05T12:43:17.031Z,1.59
2023-05-05T12:44:17.081Z,1.56
2023-05-05T12:45:17.288Z,1.55
2023-05-05T12:46:17.172Z,1.56
2023-05-05T12:47:17.158Z,1.59
2023-05-05T12:48:17.283Z,1.54
2023-05-05T12:49:17.232Z,1.56
2023-05-05T12:50:17.281Z,1.52
2023-05-05T12:51:17.383Z,1.55
2023-05-05T12:52:17.357Z,1.53
2023-05-05T12:53:17.402Z,1.51
2023-05-05T12:54:17.410Z,1.50
2023-05-05T12:55:17.463Z,1.47
2023-05-05T12:56:17.529Z,1.47
2023-05-05T12:57:17.535Z,1.48
2023-05-05T12:58:17.569Z,1.47
2023-05-05T12:59:17.602Z,1.48
2023-05-05T13:00:17.814Z,1.50
2023-05-05T13:01:27.770Z,1.48
2023-05-05T13:02:17.795Z,1.49
2023-05-05T13:03:17.805Z,1.49
2023-05-05T13:04:17.746Z,1.48
2023-05-05T13:05:17.670Z,1.45
2023-05-05T13:06:17.658Z,1.46
2023-05-05T13:07:17.644Z,1.45
2023-05-05T13:08:17.660Z,1.45
2023-05-05T13:09:17.674Z,1.44
2023-05-05T13:10:17.842Z,1.44
2023-05-05T13:11:17.641Z,1.44
2023-05-05T13:12:17.649Z,1.43
2023-05-05T13:13:17.699Z,1.45
2023-05-05T13:14:17.598Z,1.45
2023-05-05T13:15:17.612Z,1.46
2023-05-05T13:16:17.657Z,1.41
2023-05-05T13:17:17.626Z,1.42